Time;durP1;ratioP1;P1;durP2;ratioP2;P2;SDS_P1;SDS_P2;PMS_P1;PMS_P2;Temp;Humidity;BMP_temperature;BMP_pressure;BME280_temperature;BME280_humidity;BME280_pressure;Samples;Min_cycle;Max_cycle;Signal;HPM_P1;HPM_P2
2022/04/23 12:13:12;;;;;;;0.20;0.20;;;;;;;9.23;26.86;98738.78;5122207;27;20137;-66
2022/04/23 12:15:45;;;;;;;0.20;0.20;;;;;;;9.34;27.52;98746.25;5089979;28;20051;-68
2022/04/23 12:18:21;;;;;;;0.20;0.20;;;;;;;9.43;27.74;98744.88;5089423;28;20093;-68
2022/04/23 12:20:47;;;;;;;0.20;0.20;;;;;;;9.55;28.00;98741.38;5090079;28;20208;-68
2022/04/23 12:23:13;;;;;;;0.20;0.20;;;;;;;9.67;28.10;98746.91;5089941;28;20054;-66
2022/04/23 12:25:39;;;;;;;0.20;0.20;;;;;;;9.74;28.17;98740.25;5089510;28;20028;-67
2022/04/23 12:40:44;;;;;;;0.20;0.20;;;;;;;9.76;28.26;98742.78;5089601;28;20051;-69
2022/04/23 12:42:04;;;;;;;0.35;0.35;;;;;;;10.04;28.24;98724.88;5089833;28;20098;-67
2022/04/23 12:44:45;;;;;;;0.20;0.20;;;;;;;10.05;28.11;98713.66;5089364;28;20500;-65
2022/04/23 12:47:19;;;;;;;0.28;0.28;;;;;;;10.06;28.11;98717.28;5089596;28;20489;-67
2022/04/23 12:49:48;;;;;;;0.35;0.30;;;;;;;10.07;28.15;98722.53;5089379;28;20036;-67
2022/04/23 12:52:36;;;;;;;0.20;0.20;;;;;;;10.07;28.24;98711.56;5088906;28;20051;-65
2022/04/23 12:55:16;;;;;;;0.10;0.10;;;;;;;10.06;28.23;98709.88;5088306;28;20028;-67
2022/04/23 12:57:47;;;;;;;0.20;0.20;;;;;;;10.11;28.06;98707.25;5088763;28;20025;-66
2022/04/23 13:00:16;;;;;;;0.30;0.30;;;;;;;10.15;28.03;98713.13;5086756;28;20117;-65
2022/04/23 13:02:46;;;;;;;0.20;0.20;;;;;;;10.18;28.01;98712.63;5089437;28;20367;-65
2022/04/23 13:05:12;;;;;;;0.30;0.30;;;;;;;10.17;27.98;98709.06;5088510;28;20024;-65
2022/04/23 13:10:23;;;;;;;0.20;0.20;;;;;;;10.16;28.06;98714.78;5088932;28;20410;-67
2022/04/23 13:12:48;;;;;;;0.30;0.30;;;;;;;10.12;27.88;98703.44;5089158;28;20058;-68
2022/04/23 13:15:18;;;;;;;0.13;0.13;;;;;;;10.15;27.83;98711.19;5088298;28;20036;-66
2022/04/23 13:17:46;;;;;;;0.20;0.20;;;;;;;10.18;27.86;98707.16;5088498;28;20035;-68
2022/04/23 13:20:13;;;;;;;0.20;0.20;;;;;;;10.23;27.74;98709.19;5088128;28;20097;-67
2022/04/23 13:22:46;;;;;;;0.20;0.20;;;;;;;10.22;27.68;98715.75;5085042;28;20049;-68
2022/04/23 13:25:13;;;;;;;0.20;0.20;;;;;;;10.21;27.78;98711.34;5074657;28;20120;-65
2022/04/23 13:27:40;;;;;;;0.43;0.32;;;;;;;10.19;27.65;98711.59;5074633;28;20089;-65
2022/04/23 13:30:07;;;;;;;0.38;0.38;;;;;;;10.20;27.65;98715.16;5074930;28;20051;-67
2022/04/23 13:32:35;;;;;;;0.22;0.22;;;;;;;10.17;27.60;98716.44;5074699;28;20044;-66
2022/04/23 13:35:02;;;;;;;0.10;0.10;;;;;;;10.13;27.64;98707.03;5074149;28;20037;-65
2022/04/23 13:37:28;;;;;;;0.47;0.47;;;;;;;10.10;27.72;98716.56;5074205;28;20020;-66
2022/04/23 13:39:54;;;;;;;1.75;0.60;;;;;;;10.08;27.60;98718.69;5073737;28;20185;-67
2022/04/23 13:42:21;;;;;;;0.20;0.20;;;;;;;10.07;27.59;98710.69;5072499;28;20518;-67
2022/04/23 13:44:47;;;;;;;2.10;0.52;;;;;;;10.06;27.56;98715.34;5073745;28;20033;-66
2022/04/23 13:47:13;;;;;;;0.20;0.20;;;;;;;10.03;27.47;98715.81;5074066;28;20493;-66
2022/04/23 13:49:39;;;;;;;0.30;0.30;;;;;;;10.01;27.53;98715.19;5072721;28;20043;-66
2022/04/23 13:52:05;;;;;;;0.40;0.40;;;;;;;9.97;27.59;98711.28;5073924;28;20116;-65
2022/04/23 13:54:32;;;;;;;0.40;0.40;;;;;;;9.91;27.58;98706.69;5073858;28;20039;-67
2022/04/23 13:57:00;;;;;;;0.32;0.32;;;;;;;9.87;27.44;98711.84;5074055;28;20032;-65
2022/04/23 13:59:27;;;;;;;0.20;0.20;;;;;;;9.82;27.56;98708.97;5074044;28;20032;-66
2022/04/23 14:10:05;;;;;;;0.20;0.20;;;;;;;9.60;27.58;98714.13;5074016;28;20059;-66
2022/04/23 14:12:31;;;;;;;0.40;0.40;;;;;;;9.56;27.46;98716.47;5073127;28;20143;-68
2022/04/23 14:14:57;;;;;;;0.82;0.45;;;;;;;9.53;27.57;98714.19;5073853;28;20043;-68
2022/04/23 14:17:23;;;;;;;1.45;0.80;;;;;;;9.51;27.63;98718.22;5073834;28;20028;-67
2022/04/23 14:19:49;;;;;;;1.02;0.95;;;;;;;9.46;27.54;98708.78;5073712;28;20036;-67
2022/04/23 14:22:15;;;;;;;0.80;0.80;;;;;;;9.43;27.61;98706.50;5073863;28;20122;-65
2022/04/23 14:24:41;;;;;;;0.50;0.50;;;;;;;9.39;27.55;98710.78;5073699;28;20451;-68
2022/04/23 14:27:06;;;;;;;0.75;0.75;;;;;;;9.35;27.56;98705.97;5069378;28;20032;-66
2022/04/23 14:29:32;;;;;;;0.30;0.30;;;;;;;9.30;27.54;98706.66;5054718;28;20029;-66
2022/04/23 14:31:58;;;;;;;0.68;0.40;;;;;;;9.25;27.56;98701.88;5073289;28;20044;-68
2022/04/23 14:34:24;;;;;;;0.50;0.30;;;;;;;9.20;27.42;98700.88;5065937;28;20102;-67
2022/04/23 14:36:50;;;;;;;0.40;0.40;;;;;;;9.16;27.44;98696.91;5053097;28;20037;-65
2022/04/23 14:39:15;;;;;;;0.57;0.57;;;;;;;9.09;27.66;98702.50;5053597;28;20040;-64
2022/04/23 14:41:41;;;;;;;0.55;0.55;;;;;;;9.03;27.53;98704.22;5053631;28;20120;-65
2022/04/23 14:44:07;;;;;;;0.52;0.38;;;;;;;8.99;27.59;98703.00;5053066;28;20033;-66
2022/04/23 14:46:33;;;;;;;1.00;0.50;;;;;;;8.97;27.51;98705.16;5053350;28;20029;-67
2022/04/23 14:48:59;;;;;;;0.30;0.30;;;;;;;9.05;27.39;98693.88;5053060;28;20561;-68
2022/04/23 14:54:10;;;;;;;0.32;0.32;;;;;;;8.97;27.33;98691.47;5051178;28;20091;-67
2022/04/23 14:56:37;;;;;;;1.13;1.05;;;;;;;8.85;27.51;98696.00;5052183;28;20060;-66
2022/04/23 14:59:03;;;;;;;0.40;0.40;;;;;;;8.74;27.61;98686.63;5066487;28;20075;-65
2022/04/23 15:01:29;;;;;;;0.85;0.85;;;;;;;8.64;27.72;98698.09;5072575;28;20158;-65
2022/04/23 15:03:55;;;;;;;1.08;0.47;;;;;;;8.54;27.67;98695.06;5069188;28;20172;-65
2022/04/23 15:06:22;;;;;;;0.47;0.47;;;;;;;8.45;27.77;98699.97;5070743;28;20059;-68
2022/04/23 15:08:48;;;;;;;0.30;0.30;;;;;;;8.36;27.69;98693.91;5072113;28;20032;-65
2022/04/23 15:11:14;;;;;;;2.40;0.50;;;;;;;8.27;27.83;98697.97;5072400;28;20075;-65
2022/04/23 15:13:40;;;;;;;1.55;1.45;;;;;;;8.19;27.86;98690.88;5072218;28;20064;-65
2022/04/23 15:16:06;;;;;;;0.30;0.30;;;;;;;8.09;27.97;98689.72;5072346;28;20359;-64
2022/04/23 15:18:32;;;;;;;0.40;0.40;;;;;;;7.99;27.98;98699.22;5072395;28;20037;-65
2022/04/23 15:20:58;;;;;;;0.30;0.30;;;;;;;7.88;27.94;98699.94;5063322;28;20048;-66
2022/04/23 15:23:24;;;;;;;0.30;0.30;;;;;;;7.80;28.02;98706.50;5069003;28;20028;-65
2022/04/23 15:25:52;;;;;;;0.75;0.75;;;;;;;7.72;28.04;98699.38;5069776;28;20081;-67
2022/04/23 15:28:18;;;;;;;2.10;0.73;;;;;;;7.63;28.06;98700.72;5070300;28;20029;-67
2022/04/23 15:30:44;;;;;;;0.70;0.70;;;;;;;7.55;28.19;98706.41;5069925;28;20400;-66
2022/04/23 15:33:09;;;;;;;0.63;0.63;;;;;;;7.47;28.12;98698.50;5070182;28;20033;-64
2022/04/23 15:35:36;;;;;;;0.80;0.75;;;;;;;7.40;28.08;98700.41;5069704;28;20029;-67
2022/04/23 15:38:02;;;;;;;1.08;0.82;;;;;;;7.32;28.04;98702.31;5066299;28;20036;-65
2022/04/23 15:40:28;;;;;;;0.35;0.35;;;;;;;7.25;28.02;98708.88;5064158;28;20131;-67
2022/04/23 15:42:55;;;;;;;0.20;0.20;;;;;;;7.18;28.07;98711.63;5066464;28;20041;-63
2022/04/23 15:45:21;;;;;;;0.40;0.40;;;;;;;7.12;27.93;98707.84;5067340;28;20029;-64
2022/04/23 15:47:47;;;;;;;1.48;0.57;;;;;;;7.06;27.98;98703.25;5069013;28;20024;-65
2022/04/23 15:50:14;;;;;;;0.40;0.40;;;;;;;7.00;28.10;98713.13;5070166;28;20107;-62
2022/04/23 15:52:40;;;;;;;1.70;0.80;;;;;;;6.93;28.15;98717.78;5066999;28;20068;-64
2022/04/23 15:55:07;;;;;;;0.68;0.55;;;;;;;6.88;27.92;98708.56;5068168;28;20032;-63
2022/04/23 15:57:34;;;;;;;0.30;0.30;;;;;;;6.79;28.07;98708.78;5070360;28;20113;-61
2022/04/23 16:00:04;;;;;;;0.40;0.40;;;;;;;6.72;28.17;98710.69;5070415;28;20139;-63
2022/04/23 16:02:29;;;;;;;0.20;0.20;;;;;;;6.66;28.12;98717.81;5070225;28;20452;-62
2022/04/23 16:05:30;;;;;;;0.98;0.77;;;;;;;6.62;28.14;98705.66;5068563;28;20078;-62
2022/04/23 16:07:55;;;;;;;1.23;1.10;;;;;;;6.56;28.15;98717.41;5063496;28;20043;-62
2022/04/23 16:10:22;;;;;;;0.93;0.93;;;;;;;6.53;27.98;98726.03;5070725;28;20032;-63
2022/04/23 16:12:47;;;;;;;4.65;0.55;;;;;;;6.48;28.13;98721.22;5070264;28;20472;-63
2022/04/23 16:15:13;;;;;;;1.23;1.13;;;;;;;6.43;28.05;98721.03;5070274;28;20068;-63
2022/04/23 16:17:39;;;;;;;0.65;0.65;;;;;;;6.37;28.19;98721.00;5069598;28;20437;-63
2022/04/23 16:20:05;;;;;;;0.52;0.40;;;;;;;6.27;28.08;98722.28;5070111;28;20028;-63
2022/04/23 16:22:32;;;;;;;0.30;0.30;;;;;;;6.22;28.16;98727.50;5069077;28;20040;-63
2022/04/23 16:24:57;;;;;;;0.20;0.20;;;;;;;6.17;28.24;98720.97;5070783;28;20032;-67
2022/04/23 16:27:23;;;;;;;0.30;0.30;;;;;;;6.12;28.08;98725.19;5068898;28;20085;-62
2022/04/23 16:29:49;;;;;;;0.20;0.20;;;;;;;6.05;28.19;98732.53;5070403;28;20119;-62
2022/04/23 16:32:14;;;;;;;2.28;0.60;;;;;;;6.02;28.10;98735.66;5070031;28;20456;-63
2022/04/23 16:34:40;;;;;;;0.30;0.30;;;;;;;5.96;28.20;98731.84;5069763;28;20479;-64
2022/04/23 16:48:02;;;;;;;0.40;0.40;;;;;;;5.64;28.37;98721.69;5069910;28;20047;-65
2022/04/23 16:50:35;;;;;;;0.30;0.30;;;;;;;5.57;28.40;98725.25;5071102;28;20066;-63
2022/04/23 16:53:00;;;;;;;0.30;0.30;;;;;;;5.51;28.38;98733.41;5069010;28;20049;-62
2022/04/23 16:55:26;;;;;;;0.30;0.30;;;;;;;5.45;28.41;98735.06;5069695;28;20058;-61
2022/04/23 16:57:52;;;;;;;0.38;0.38;;;;;;;5.38;28.45;98728.75;5070652;28;20106;-60
2022/04/23 17:00:17;;;;;;;0.35;0.35;;;;;;;5.35;28.65;98734.59;5074407;28;20039;-61
2022/04/23 17:02:43;;;;;;;1.08;0.40;;;;;;;5.29;28.70;98727.25;5073947;28;20094;-62
2022/04/23 17:05:09;;;;;;;0.38;0.38;;;;;;;5.23;28.50;98731.63;5071889;28;20058;-60
2022/04/23 17:07:35;;;;;;;0.38;0.38;;;;;;;5.18;28.55;98734.94;5072515;28;20032;-61
2022/04/23 17:10:00;;;;;;;3.85;0.40;;;;;;;5.16;28.58;98730.75;5073421;28;20430;-62
2022/04/23 17:12:26;;;;;;;0.73;0.73;;;;;;;5.14;28.69;98735.53;5072243;28;20064;-64
2022/04/23 17:14:52;;;;;;;0.40;0.40;;;;;;;5.12;28.70;98735.72;5074132;28;20071;-63
2022/04/23 17:17:17;;;;;;;0.32;0.32;;;;;;;5.09;28.84;98719.81;5069874;28;20039;-61
2022/04/23 17:19:45;;;;;;;0.22;0.22;;;;;;;5.08;28.63;98729.03;5072371;28;20032;-63
2022/04/23 17:22:11;;;;;;;0.45;0.45;;;;;;;5.06;28.55;98723.78;5070628;28;20033;-61
2022/04/23 17:24:36;;;;;;;0.57;0.43;;;;;;;5.06;28.55;98723.78;5072591;28;20036;-61
2022/04/23 17:27:02;;;;;;;0.30;0.30;;;;;;;5.03;28.68;98716.00;5071651;28;20123;-61
2022/04/23 17:29:28;;;;;;;0.20;0.20;;;;;;;5.01;28.68;98709.94;5072994;28;20081;-60
2022/04/23 17:31:54;;;;;;;0.75;0.75;;;;;;;4.99;28.83;98713.91;5072571;28;20044;-61
2022/04/23 17:34:19;;;;;;;0.55;0.55;;;;;;;4.95;28.63;98712.59;5072876;28;20047;-61
2022/04/23 17:36:45;;;;;;;0.98;0.65;;;;;;;4.94;28.73;98719.94;5074212;28;20063;-61
2022/04/23 17:39:12;;;;;;;1.02;0.98;;;;;;;4.91;28.72;98713.00;5066189;28;20486;-61
2022/04/23 17:41:37;;;;;;;0.35;0.35;;;;;;;4.89;28.88;98714.28;5072633;28;20465;-59
2022/04/23 17:44:06;;;;;;;0.47;0.47;;;;;;;4.84;28.86;98717.56;5072684;28;20078;-60
2022/04/23 17:46:32;;;;;;;0.32;0.32;;;;;;;4.80;28.70;98719.03;5072326;28;20032;-64
2022/04/23 17:48:57;;;;;;;0.40;0.40;;;;;;;4.77;29.02;98722.16;5066641;28;20047;-62
2022/04/23 17:51:24;;;;;;;0.30;0.30;;;;;;;4.74;28.85;98722.53;5067337;28;20052;-61
2022/04/23 17:53:50;;;;;;;0.30;0.30;;;;;;;4.72;29.00;98720.00;5073096;28;20410;-61
2022/04/23 17:56:16;;;;;;;2.00;0.77;;;;;;;4.68;28.91;98718.75;5080674;28;20115;-62
2022/04/23 17:58:42;;;;;;;0.43;0.43;;;;;;;4.66;29.12;98722.69;5077159;28;20626;-64
2022/04/23 18:07:23;;;;;;;0.43;0.43;;;;;;;4.56;28.78;98712.16;5072858;28;20102;-67
2022/04/23 18:09:52;;;;;;;1.88;0.40;;;;;;;4.53;29.01;98716.16;5071185;28;20052;-66
2022/04/23 18:12:19;;;;;;;0.38;0.38;;;;;;;4.51;29.15;98712.75;5070084;28;20147;-64
2022/04/23 18:14:47;;;;;;;0.30;0.30;;;;;;;4.48;29.12;98712.34;5070300;28;20087;-65
2022/04/23 18:17:17;;;;;;;0.32;0.32;;;;;;;4.45;29.22;98708.13;5070474;28;20513;-63
2022/04/23 18:19:45;;;;;;;0.98;0.93;;;;;;;4.42;29.22;98711.25;5071871;28;20032;-62
2022/04/23 18:22:17;;;;;;;0.35;0.35;;;;;;;4.38;29.32;98718.09;5070665;28;20487;-65
2022/04/23 18:24:45;;;;;;;0.73;0.73;;;;;;;4.37;29.22;98710.97;5068935;28;20032;-64
2022/04/23 18:27:13;;;;;;;4.00;0.70;;;;;;;4.37;29.02;98705.53;5075026;28;20062;-67
2022/04/23 18:29:42;;;;;;;1.15;0.80;;;;;;;4.36;29.32;98709.31;5072138;28;20426;-62
2022/04/23 18:32:12;;;;;;;0.30;0.30;;;;;;;4.35;29.21;98708.47;5074952;28;20035;-63
2022/04/23 18:34:39;;;;;;;0.30;0.30;;;;;;;4.33;29.17;98704.28;5068649;28;20024;-65
2022/04/23 18:37:07;;;;;;;0.30;0.30;;;;;;;4.29;29.26;98706.53;5070476;28;20510;-65
2022/04/23 18:39:34;;;;;;;1.10;1.00;;;;;;;4.27;29.23;98710.47;5069824;28;20123;-65
2022/04/23 18:42:02;;;;;;;3.47;0.88;;;;;;;4.23;29.31;98706.50;5072601;28;20554;-63
2022/04/23 18:44:30;;;;;;;1.45;1.05;;;;;;;4.20;29.36;98711.28;5071980;28;20028;-63
2022/04/23 18:47:00;;;;;;;0.50;0.50;;;;;;;4.16;29.21;98709.97;5071873;28;20039;-62
2022/04/23 18:49:28;;;;;;;0.60;0.60;;;;;;;4.13;29.26;98704.94;5071879;28;20093;-63
2022/04/23 18:51:57;;;;;;;0.30;0.30;;;;;;;4.13;29.39;98706.81;5071833;28;20036;-67
2022/04/23 18:54:27;;;;;;;0.20;0.20;;;;;;;4.10;29.52;98701.78;5071978;28;20090;-64
2022/04/23 18:56:54;;;;;;;0.45;0.45;;;;;;;4.08;29.33;98698.41;5071604;28;20025;-62
2022/04/23 18:59:22;;;;;;;0.32;0.30;;;;;;;4.06;29.41;98693.16;5071615;28;20126;-65
2022/04/23 19:01:53;;;;;;;3.10;1.35;;;;;;;4.02;29.59;98686.47;5072064;28;20041;-64
2022/04/23 19:04:21;;;;;;;0.32;0.32;;;;;;;3.98;29.47;98694.16;5071223;28;20130;-65
2022/04/23 19:06:47;;;;;;;0.32;0.32;;;;;;;3.98;29.40;98696.03;5071611;28;20133;-65
2022/04/23 19:09:14;;;;;;;0.85;0.85;;;;;;;3.94;29.57;98698.28;5071416;28;20115;-63
2022/04/23 19:11:42;;;;;;;0.20;0.20;;;;;;;3.92;29.65;98696.81;5054592;28;20095;-64
2022/04/23 19:14:10;;;;;;;0.40;0.40;;;;;;;3.88;29.41;98696.34;5071529;28;20020;-67
2022/04/23 19:16:37;;;;;;;2.25;1.38;;;;;;;3.86;29.52;98695.72;5072662;28;20035;-67
2022/04/23 19:19:06;;;;;;;0.40;0.40;;;;;;;3.83;29.63;98694.22;5072601;28;20033;-68
2022/04/23 19:29:48;;;;;;;;;;;;;;;3.64;29.78;98690.28;5072849;28;20406;-66
2022/04/23 19:32:19;;;;;;;0.40;0.40;;;;;;;3.60;29.89;98688.16;5070997;28;19916;-68
2022/04/23 19:34:48;;;;;;;0.63;0.60;;;;;;;3.58;29.74;98699.19;5071986;28;20043;-66
2022/04/23 19:37:15;;;;;;;0.20;0.20;;;;;;;3.57;29.97;98693.97;5070778;28;20043;-68
2022/04/23 19:39:41;;;;;;;0.47;0.47;;;;;;;3.55;29.90;98693.28;5071090;28;20032;-69
2022/04/23 19:42:08;;;;;;;1.90;0.82;;;;;;;3.50;29.88;98694.75;5072145;28;20028;-68
2022/04/23 19:44:37;;;;;;;1.00;1.00;;;;;;;3.49;29.86;98693.06;5070555;28;20032;-67
2022/04/23 19:47:04;;;;;;;0.40;0.40;;;;;;;3.46;29.93;98685.28;5070863;28;20414;-65
2022/04/23 19:49:31;;;;;;;0.40;0.40;;;;;;;3.43;30.03;98687.53;5070974;28;20033;-66
2022/04/23 19:52:02;;;;;;;0.60;0.35;;;;;;;3.40;30.11;98688.78;5072290;28;20119;-65
2022/04/23 19:54:30;;;;;;;1.60;0.55;;;;;;;3.36;29.87;98687.47;5072062;28;20090;-65
2022/04/23 19:56:57;;;;;;;0.32;0.30;;;;;;;3.33;30.08;98687.88;5070669;28;20039;-66
2022/04/23 19:59:25;;;;;;;0.50;0.45;;;;;;;3.30;30.16;98690.97;5070459;28;20039;-65
2022/04/23 20:01:51;;;;;;;0.40;0.40;;;;;;;3.27;30.04;98680.50;5070523;28;20124;-65
2022/04/23 20:04:20;;;;;;;0.30;0.30;;;;;;;3.25;29.92;98682.53;5070209;28;20090;-64
2022/04/23 20:06:48;;;;;;;3.22;0.68;;;;;;;3.22;30.19;98685.63;5070649;28;20028;-64
2022/04/23 20:09:16;;;;;;;0.55;0.55;;;;;;;3.20;30.40;98685.81;5070316;28;20029;-66
2022/04/23 20:11:44;;;;;;;1.35;0.40;;;;;;;3.17;30.23;98683.50;5071429;28;20060;-66
2022/04/23 20:14:14;;;;;;;1.25;0.70;;;;;;;3.14;30.16;98681.16;5069339;28;20036;-65
2022/04/23 20:16:42;;;;;;;0.30;0.30;;;;;;;3.12;30.37;98683.22;5070330;28;20071;-64
2022/04/23 20:19:10;;;;;;;0.45;0.45;;;;;;;3.06;30.23;98676.69;5069895;28;20040;-63
2022/04/23 20:21:38;;;;;;;0.68;0.68;;;;;;;3.05;30.39;98691.28;5070218;28;20032;-63
2022/04/23 20:24:08;;;;;;;0.50;0.50;;;;;;;3.03;30.42;98677.06;5070248;28;20038;-65
2022/04/23 20:26:37;;;;;;;1.05;1.05;;;;;;;2.95;30.32;98671.75;5070266;28;20040;-63
2022/04/23 20:29:09;;;;;;;0.30;0.30;;;;;;;2.96;30.52;98684.28;5070407;28;20554;-63
2022/04/23 20:31:43;;;;;;;0.30;0.30;;;;;;;2.95;30.39;98672.56;5070364;28;20474;-65
2022/04/23 20:34:12;;;;;;;1.13;0.75;;;;;;;2.93;30.53;98680.06;5073490;28;20139;-64
2022/04/23 20:39:24;;;;;;;1.23;0.85;;;;;;;2.87;30.49;98677.25;5075994;28;20098;-64
2022/04/23 20:41:53;;;;;;;0.50;0.50;;;;;;;2.86;30.46;98678.31;5073895;28;20033;-65
2022/04/23 20:44:22;;;;;;;0.30;0.30;;;;;;;2.84;30.53;98677.66;5073953;28;20025;-65
2022/04/23 20:46:49;;;;;;;3.10;1.90;;;;;;;2.82;30.78;98674.28;5073983;28;20064;-65
2022/04/23 20:49:17;;;;;;;1.13;0.82;;;;;;;2.82;30.71;98675.13;5075239;28;20039;-66
2022/04/23 20:51:45;;;;;;;0.47;0.40;;;;;;;2.79;30.76;98673.63;5073547;28;20041;-66
2022/04/23 20:54:11;;;;;;;1.75;0.70;;;;;;;2.80;30.68;98678.03;5073873;28;20032;-65
2022/04/23 20:56:39;;;;;;;0.80;0.70;;;;;;;2.77;30.69;98672.97;5073785;28;20502;-65
2022/04/23 20:59:10;;;;;;;0.30;0.30;;;;;;;2.76;30.62;98676.72;5075045;28;20111;-65
2022/04/23 21:01:38;;;;;;;1.05;0.85;;;;;;;2.74;30.79;98672.50;5075178;28;20040;-64
2022/04/23 21:04:06;;;;;;;0.60;0.60;;;;;;;2.72;30.87;98675.41;5073400;28;20028;-65
2022/04/23 21:06:37;;;;;;;0.60;0.60;;;;;;;2.72;30.92;98669.97;5073861;28;20032;-66
2022/04/23 21:09:04;;;;;;;0.28;0.28;;;;;;;2.72;30.68;98669.97;5073828;28;20032;-65
2022/04/23 21:11:32;;;;;;;0.60;0.60;;;;;;;2.71;30.85;98668.31;5073592;28;20053;-65
2022/04/23 21:14:04;;;;;;;0.55;0.55;;;;;;;2.72;30.74;98663.72;5073583;28;20032;-65
2022/04/23 21:16:33;;;;;;;0.40;0.40;;;;;;;2.72;30.85;98669.16;5073669;28;20097;-65
2022/04/23 21:19:01;;;;;;;0.55;0.55;;;;;;;2.73;30.77;98665.41;5073696;28;20448;-63
2022/04/23 21:21:30;;;;;;;0.65;0.65;;;;;;;2.72;30.93;98669.97;5073941;28;20143;-64
2022/04/23 21:23:58;;;;;;;0.73;0.73;;;;;;;2.72;30.82;98661.00;5072942;28;20043;-65
2022/04/23 21:26:27;;;;;;;2.05;0.65;;;;;;;2.73;31.11;98670.84;5073104;28;20078;-65
2022/04/23 21:28:55;;;;;;;0.30;0.30;;;;;;;2.68;30.94;98667.84;5073279;28;20410;-64
2022/04/23 21:31:23;;;;;;;0.52;0.47;;;;;;;2.66;31.15;98665.31;5073444;28;20444;-64
2022/04/23 21:33:53;;;;;;;0.40;0.40;;;;;;;2.67;31.00;98666.16;5072491;28;20508;-64
2022/04/23 21:36:21;;;;;;;1.40;1.33;;;;;;;2.63;31.13;98660.25;5056860;28;20037;-64
2022/04/23 21:38:49;;;;;;;1.73;1.60;;;;;;;2.62;31.14;98669.41;5072908;28;20058;-63
2022/04/23 21:46:46;;;;;;;0.45;0.45;;;;;;;2.58;31.16;98660.84;5074522;28;20336;-64
2022/04/23 21:49:17;;;;;;;1.10;0.77;;;;;;;2.56;31.08;98657.47;5072606;28;20032;-63
2022/04/23 21:51:44;;;;;;;0.52;0.40;;;;;;;2.54;31.30;98653.28;5072640;28;20040;-62
2022/04/23 21:54:11;;;;;;;0.65;0.65;;;;;;;2.55;31.17;98652.25;5072956;28;20064;-61
2022/04/23 21:56:40;;;;;;;9.30;1.25;;;;;;;2.54;31.25;98654.09;5072901;28;20410;-65
2022/04/23 21:59:08;;;;;;;0.22;0.22;;;;;;;2.55;31.20;98647.66;5072789;28;20028;-63
2022/04/23 22:01:36;;;;;;;0.65;0.30;;;;;;;2.57;30.97;98651.00;5072531;28;20136;-61
2022/04/23 22:04:04;;;;;;;0.52;0.52;;;;;;;2.56;31.23;98651.19;5071956;28;20486;-62
2022/04/23 22:06:32;;;;;;;1.27;1.17;;;;;;;2.54;31.35;98650.56;5072401;28;20414;-62
2022/04/23 22:09:00;;;;;;;0.73;0.65;;;;;;;2.52;31.32;98649.88;5073734;28;20174;-61
2022/04/23 22:11:30;;;;;;;0.47;0.40;;;;;;;2.48;31.51;98645.88;5072106;28;20052;-62
2022/04/23 22:13:56;;;;;;;0.20;0.20;;;;;;;2.46;31.37;98646.06;5072310;28;20129;-61
2022/04/23 22:16:25;;;;;;;3.40;1.40;;;;;;;2.43;31.59;98647.28;5072134;28;20081;-63
2022/04/23 22:18:53;;;;;;;1.00;0.93;;;;;;;2.41;31.56;98645.78;5072165;28;20110;-61
2022/04/23 22:21:20;;;;;;;0.43;0.43;;;;;;;2.38;31.58;98647.00;5072314;28;20517;-62
2022/04/23 22:23:47;;;;;;;6.78;2.33;;;;;;;2.36;31.52;98642.81;5073546;28;20037;-63
2022/04/23 22:26:16;;;;;;;2.00;0.73;;;;;;;2.33;31.54;98638.59;5072123;28;20094;-62
2022/04/23 22:28:44;;;;;;;1.48;1.27;;;;;;;2.32;31.69;98642.31;5071763;28;20031;-62
2022/04/23 22:31:12;;;;;;;0.30;0.30;;;;;;;2.31;31.63;98642.50;5071728;28;20036;-62
2022/04/23 22:33:40;;;;;;;0.55;0.52;;;;;;;2.29;31.57;98642.69;5071301;28;20037;-61
2022/04/23 22:36:08;;;;;;;0.75;0.75;;;;;;;2.28;31.60;98641.00;5071986;28;20040;-61
2022/04/23 22:38:36;;;;;;;0.50;0.50;;;;;;;2.27;31.74;98644.75;5071940;28;20032;-61
2022/04/23 22:41:04;;;;;;;0.50;0.50;;;;;;;2.27;31.69;98644.75;5071696;28;20032;-61
2022/04/23 22:43:34;;;;;;;0.73;0.70;;;;;;;2.23;31.75;98638.03;5071600;28;20402;-61
2022/04/23 22:46:01;;;;;;;0.40;0.40;;;;;;;2.18;31.89;98641.28;5071856;28;20374;-61
2022/04/23 22:48:30;;;;;;;0.73;0.73;;;;;;;2.17;31.86;98649.59;5071862;28;20447;-61
2022/04/23 22:50:58;;;;;;;0.30;0.30;;;;;;;2.15;31.90;98646.22;5072864;28;20051;-62
2022/04/23 22:53:28;;;;;;;0.40;0.40;;;;;;;2.12;31.89;98644.75;5071476;28;20032;-62
2022/04/23 22:55:57;;;;;;;0.55;0.55;;;;;;;2.13;32.01;98653.69;5072003;28;20051;-62
2022/04/23 22:58:25;;;;;;;0.65;0.63;;;;;;;2.10;31.94;98644.91;5071303;28;20033;-62
2022/04/23 23:00:52;;;;;;;0.20;0.20;;;;;;;2.10;32.00;98649.50;5071275;28;20029;-61
2022/04/23 23:03:20;;;;;;;0.50;0.50;;;;;;;2.09;32.09;98642.38;5071516;28;20047;-63
2022/04/23 23:05:49;;;;;;;0.60;0.60;;;;;;;2.05;32.01;98647.34;5070927;28;20417;-62
2022/04/23 23:08:16;;;;;;;0.30;0.30;;;;;;;2.06;32.02;98649.03;5071149;28;20047;-61
2022/04/23 23:10:45;;;;;;;0.52;0.52;;;;;;;2.07;32.08;98644.44;5071085;28;20075;-61
2022/04/23 23:13:13;;;;;;;0.85;0.50;;;;;;;2.06;32.19;98640.03;5071027;28;20037;-63
2022/04/23 23:15:41;;;;;;;1.00;1.00;;;;;;;2.04;32.18;98645.66;5070901;28;20098;-61
2022/04/23 23:18:09;;;;;;;0.93;0.93;;;;;;;2.04;32.20;98640.22;5070959;28;20036;-60
2022/04/23 23:20:37;;;;;;;0.63;0.63;;;;;;;2.02;32.21;98634.16;5070932;28;20028;-61
2022/04/23 23:23:07;;;;;;;0.82;0.82;;;;;;;2.02;32.19;98638.75;5070918;28;20037;-61
2022/04/23 23:25:34;;;;;;;0.75;0.75;;;;;;;2.01;32.19;98637.06;5070852;28;20029;-62
2022/04/23 23:28:03;;;;;;;2.25;0.82;;;;;;;1.99;32.03;98637.25;5071030;28;20127;-63
2022/04/23 23:30:32;;;;;;;0.45;0.45;;;;;;;2.00;32.23;98635.38;5070812;28;20028;-62
2022/04/23 23:32:59;;;;;;;0.70;0.30;;;;;;;2.01;32.25;98642.47;5070622;28;20043;-62
2022/04/23 23:35:28;;;;;;;0.77;0.77;;;;;;;2.02;32.29;98634.16;5070095;28;20117;-62
2022/04/23 23:37:56;;;;;;;0.32;0.32;;;;;;;2.02;32.28;98636.88;5070623;28;20389;-61
2022/04/23 23:40:24;;;;;;;0.63;0.63;;;;;;;2.04;32.19;98632.09;5070687;28;20032;-64
2022/04/23 23:42:52;;;;;;;0.85;0.75;;;;;;;2.05;32.23;98639.22;5070706;28;20044;-62
2022/04/23 23:45:23;;;;;;;0.50;0.40;;;;;;;2.05;32.20;98635.66;5070629;28;20119;-62
2022/04/23 23:47:49;;;;;;;0.30;0.30;;;;;;;2.04;32.37;98629.41;5070449;28;20559;-61
2022/04/23 23:50:16;;;;;;;0.40;0.40;;;;;;;2.05;32.36;98631.09;5070606;28;20509;-62
2022/04/23 23:52:45;;;;;;;0.30;0.30;;;;;;;2.08;32.32;98629.88;5070498;28;20040;-61
2022/04/23 23:55:14;;;;;;;0.57;0.57;;;;;;;2.09;32.31;98629.69;5070650;28;20060;-61
2022/04/23 23:57:41;;;;;;;0.90;0.77;;;;;;;2.12;32.23;98635.75;5070735;28;20483;-61
